sensor_id;sensor_type;location;lat;lon;timestamp;temperature;humidity
29547;DHT22;40782;47.264;11.330;2023-12-20T00:01:51;0.50;99.90
29547;DHT22;40782;47.264;11.330;2023-12-20T00:04:20;0.50;99.90
29547;DHT22;40782;47.264;11.330;2023-12-20T00:06:47;0.40;99.90
29547;DHT22;40782;47.264;11.330;2023-12-20T00:09:14;0.40;99.90
29547;DHT22;40782;47.264;11.330;2023-12-20T00:11:41;0.40;99.90
29547;DHT22;40782;47.264;11.330;2023-12-20T00:14:08;0.30;99.90
29547;DHT22;40782;47.264;11.330;2023-12-20T00:16:35;0.30;99.90
29547;DHT22;40782;47.264;11.330;2023-12-20T00:19:02;0.20;99.90
29547;DHT22;40782;47.264;11.330;2023-12-20T00:21:30;0.10;99.90
29547;DHT22;40782;47.264;11.330;2023-12-20T00:23:57;0.10;99.90
29547;DHT22;40782;47.264;11.330;2023-12-20T00:26:23;0.10;99.90
29547;DHT22;40782;47.264;11.330;2023-12-20T00:28:50;0.00;99.90
29547;DHT22;40782;47.264;11.330;2023-12-20T00:31:17;0.00;99.90
29547;DHT22;40782;47.264;11.330;2023-12-20T00:33:44;0.00;99.90
29547;DHT22;40782;47.264;11.330;2023-12-20T00:36:12;-0.10;99.90
29547;DHT22;40782;47.264;11.330;2023-12-20T00:38:40;-0.10;99.90
29547;DHT22;40782;47.264;11.330;2023-12-20T00:41:07;-0.10;99.90
29547;DHT22;40782;47.264;11.330;2023-12-20T00:43:34;-0.10;99.90
29547;DHT22;40782;47.264;11.330;2023-12-20T00:46:01;-0.10;99.90
29547;DHT22;40782;47.264;11.330;2023-12-20T00:48:28;-0.10;99.90
29547;DHT22;40782;47.264;11.330;2023-12-20T00:50:55;-0.10;99.90
29547;DHT22;40782;47.264;11.330;2023-12-20T00:53:22;-0.10;99.90
29547;DHT22;40782;47.264;11.330;2023-12-20T00:55:50;-0.10;99.90
29547;DHT22;40782;47.264;11.330;2023-12-20T00:58:17;-0.10;99.90
29547;DHT22;40782;47.264;11.330;2023-12-20T01:00:44;-0.10;99.90
29547;DHT22;40782;47.264;11.330;2023-12-20T01:03:11;-0.10;99.90
29547;DHT22;40782;47.264;11.330;2023-12-20T01:05:39;-0.10;99.90
29547;DHT22;40782;47.264;11.330;2023-12-20T01:08:06;-0.10;99.90
29547;DHT22;40782;47.264;11.330;2023-12-20T01:10:33;-0.20;99.90
29547;DHT22;40782;47.264;11.330;2023-12-20T01:13:01;-0.20;99.90
29547;DHT22;40782;47.264;11.330;2023-12-20T01:15:28;-0.20;99.90
29547;DHT22;40782;47.264;11.330;2023-12-20T01:17:55;-0.20;99.90
29547;DHT22;40782;47.264;11.330;2023-12-20T01:20:24;-0.20;99.90
29547;DHT22;40782;47.264;11.330;2023-12-20T01:22:50;-0.20;99.90
29547;DHT22;40782;47.264;11.330;2023-12-20T01:25:18;-0.20;99.90
29547;DHT22;40782;47.264;11.330;2023-12-20T01:27:45;-0.20;99.90
29547;DHT22;40782;47.264;11.330;2023-12-20T01:30:13;-0.20;99.90
29547;DHT22;40782;47.264;11.330;2023-12-20T01:32:40;-0.30;99.90
29547;DHT22;40782;47.264;11.330;2023-12-20T01:35:07;-0.20;99.90
29547;DHT22;40782;47.264;11.330;2023-12-20T01:37:34;-0.20;99.90
29547;DHT22;40782;47.264;11.330;2023-12-20T01:40:01;-0.20;99.90
29547;DHT22;40782;47.264;11.330;2023-12-20T01:42:29;-0.20;99.90
29547;DHT22;40782;47.264;11.330;2023-12-20T01:44:56;-0.20;99.90
29547;DHT22;40782;47.264;11.330;2023-12-20T01:47:24;-0.20;99.90
29547;DHT22;40782;47.264;11.330;2023-12-20T01:49:52;-0.20;99.90
29547;DHT22;40782;47.264;11.330;2023-12-20T01:52:19;-0.20;99.90
29547;DHT22;40782;47.264;11.330;2023-12-20T01:54:46;-0.20;99.90
29547;DHT22;40782;47.264;11.330;2023-12-20T01:57:14;-0.10;99.90
29547;DHT22;40782;47.264;11.330;2023-12-20T01:59:41;-0.10;99.90
29547;DHT22;40782;47.264;11.330;2023-12-20T02:02:08;-0.10;99.90
29547;DHT22;40782;47.264;11.330;2023-12-20T02:04:38;0.00;99.90
29547;DHT22;40782;47.264;11.330;2023-12-20T02:07:05;0.00;99.90
29547;DHT22;40782;47.264;11.330;2023-12-20T02:09:34;0.00;99.90
29547;DHT22;40782;47.264;11.330;2023-12-20T02:12:01;0.00;99.90
29547;DHT22;40782;47.264;11.330;2023-12-20T02:14:28;0.10;99.90
29547;DHT22;40782;47.264;11.330;2023-12-20T02:16:55;0.10;99.90
29547;DHT22;40782;47.264;11.330;2023-12-20T02:19:22;0.10;99.90
29547;DHT22;40782;47.264;11.330;2023-12-20T02:21:50;0.10;99.90
29547;DHT22;40782;47.264;11.330;2023-12-20T02:24:17;0.10;99.90
29547;DHT22;40782;47.264;11.330;2023-12-20T02:26:44;0.10;99.90
29547;DHT22;40782;47.264;11.330;2023-12-20T02:29:11;0.10;99.90
29547;DHT22;40782;47.264;11.330;2023-12-20T02:31:38;0.10;99.90
29547;DHT22;40782;47.264;11.330;2023-12-20T02:34:05;0.10;99.90
29547;DHT22;40782;47.264;11.330;2023-12-20T02:36:32;0.10;99.90
29547;DHT22;40782;47.264;11.330;2023-12-20T02:39:00;0.20;99.90
29547;DHT22;40782;47.264;11.330;2023-12-20T02:41:27;0.10;99.90
29547;DHT22;40782;47.264;11.330;2023-12-20T02:43:54;0.20;99.90
29547;DHT22;40782;47.264;11.330;2023-12-20T02:46:21;0.10;99.90
29547;DHT22;40782;47.264;11.330;2023-12-20T02:48:47;0.10;99.90
29547;DHT22;40782;47.264;11.330;2023-12-20T02:51:14;0.10;99.90
29547;DHT22;40782;47.264;11.330;2023-12-20T02:53:41;0.10;99.90
29547;DHT22;40782;47.264;11.330;2023-12-20T02:56:10;0.00;99.90
29547;DHT22;40782;47.264;11.330;2023-12-20T02:58:36;0.00;99.90
29547;DHT22;40782;47.264;11.330;2023-12-20T03:01:03;0.00;99.90
29547;DHT22;40782;47.264;11.330;2023-12-20T03:03:31;0.00;99.90
29547;DHT22;40782;47.264;11.330;2023-12-20T03:05:58;0.00;99.90
29547;DHT22;40782;47.264;11.330;2023-12-20T03:08:25;0.00;99.90
29547;DHT22;40782;47.264;11.330;2023-12-20T03:10:52;0.00;99.90
29547;DHT22;40782;47.264;11.330;2023-12-20T03:13:21;0.00;99.90
29547;DHT22;40782;47.264;11.330;2023-12-20T03:15:48;0.00;99.90
29547;DHT22;40782;47.264;11.330;2023-12-20T03:18:14;0.10;99.90
29547;DHT22;40782;47.264;11.330;2023-12-20T03:20:41;0.10;99.90
29547;DHT22;40782;47.264;11.330;2023-12-20T03:23:09;0.10;99.90
29547;DHT22;40782;47.264;11.330;2023-12-20T03:25:36;0.10;99.90
29547;DHT22;40782;47.264;11.330;2023-12-20T03:28:03;0.20;99.90
29547;DHT22;40782;47.264;11.330;2023-12-20T03:30:32;0.20;99.90
29547;DHT22;40782;47.264;11.330;2023-12-20T03:32:58;0.20;99.90
29547;DHT22;40782;47.264;11.330;2023-12-20T03:35:25;0.30;99.90
29547;DHT22;40782;47.264;11.330;2023-12-20T03:37:52;0.30;99.90
29547;DHT22;40782;47.264;11.330;2023-12-20T03:40:19;0.30;99.90
29547;DHT22;40782;47.264;11.330;2023-12-20T03:42:47;0.40;99.90
29547;DHT22;40782;47.264;11.330;2023-12-20T03:45:14;0.30;99.90
29547;DHT22;40782;47.264;11.330;2023-12-20T03:47:43;0.30;99.90
29547;DHT22;40782;47.264;11.330;2023-12-20T03:50:10;0.40;99.90
29547;DHT22;40782;47.264;11.330;2023-12-20T03:52:36;0.40;99.90
29547;DHT22;40782;47.264;11.330;2023-12-20T03:55:04;0.40;99.90
29547;DHT22;40782;47.264;11.330;2023-12-20T03:57:31;0.40;99.90
29547;DHT22;40782;47.264;11.330;2023-12-20T03:59:57;0.40;99.90
29547;DHT22;40782;47.264;11.330;2023-12-20T04:02:24;0.40;99.90
29547;DHT22;40782;47.264;11.330;2023-12-20T04:04:53;0.40;99.90
29547;DHT22;40782;47.264;11.330;2023-12-20T04:07:20;0.40;99.90
29547;DHT22;40782;47.264;11.330;2023-12-20T04:09:47;0.40;99.90
29547;DHT22;40782;47.264;11.330;2023-12-20T04:12:14;0.40;99.90
29547;DHT22;40782;47.264;11.330;2023-12-20T04:14:41;0.30;99.90
29547;DHT22;40782;47.264;11.330;2023-12-20T04:17:08;0.30;99.90
29547;DHT22;40782;47.264;11.330;2023-12-20T04:19:35;0.30;99.90
29547;DHT22;40782;47.264;11.330;2023-12-20T04:22:03;0.30;99.90
29547;DHT22;40782;47.264;11.330;2023-12-20T04:24:30;0.30;99.90
29547;DHT22;40782;47.264;11.330;2023-12-20T04:26:57;0.30;99.90
29547;DHT22;40782;47.264;11.330;2023-12-20T04:29:24;0.30;99.90
29547;DHT22;40782;47.264;11.330;2023-12-20T04:31:50;0.30;99.90
29547;DHT22;40782;47.264;11.330;2023-12-20T04:34:17;0.40;99.90
29547;DHT22;40782;47.264;11.330;2023-12-20T04:36:44;0.40;99.90
29547;DHT22;40782;47.264;11.330;2023-12-20T04:39:13;0.50;99.90
29547;DHT22;40782;47.264;11.330;2023-12-20T04:41:40;0.50;99.90
29547;DHT22;40782;47.264;11.330;2023-12-20T04:44:07;0.50;99.90
29547;DHT22;40782;47.264;11.330;2023-12-20T04:46:34;0.50;99.90
29547;DHT22;40782;47.264;11.330;2023-12-20T04:49:01;0.60;99.90
29547;DHT22;40782;47.264;11.330;2023-12-20T04:51:28;0.60;99.90
29547;DHT22;40782;47.264;11.330;2023-12-20T04:53:54;0.60;99.90
29547;DHT22;40782;47.264;11.330;2023-12-20T04:56:24;0.70;99.90
29547;DHT22;40782;47.264;11.330;2023-12-20T04:58:51;0.70;99.90
29547;DHT22;40782;47.264;11.330;2023-12-20T05:01:18;0.70;99.90
29547;DHT22;40782;47.264;11.330;2023-12-20T05:03:46;0.70;99.90
29547;DHT22;40782;47.264;11.330;2023-12-20T05:06:13;0.70;99.90
29547;DHT22;40782;47.264;11.330;2023-12-20T05:08:40;0.70;99.90
29547;DHT22;40782;47.264;11.330;2023-12-20T05:11:07;0.70;99.90
29547;DHT22;40782;47.264;11.330;2023-12-20T05:13:35;0.70;99.90
29547;DHT22;40782;47.264;11.330;2023-12-20T05:16:02;0.70;99.90
29547;DHT22;40782;47.264;11.330;2023-12-20T05:18:29;0.70;99.90
29547;DHT22;40782;47.264;11.330;2023-12-20T05:20:56;0.70;99.90
29547;DHT22;40782;47.264;11.330;2023-12-20T05:23:23;0.70;99.90
29547;DHT22;40782;47.264;11.330;2023-12-20T05:25:50;0.80;99.90
29547;DHT22;40782;47.264;11.330;2023-12-20T05:28:17;0.80;99.90
29547;DHT22;40782;47.264;11.330;2023-12-20T05:30:45;0.80;99.90
29547;DHT22;40782;47.264;11.330;2023-12-20T05:33:12;0.80;99.90
29547;DHT22;40782;47.264;11.330;2023-12-20T05:35:39;0.80;99.90
29547;DHT22;40782;47.264;11.330;2023-12-20T05:38:07;0.80;99.90
29547;DHT22;40782;47.264;11.330;2023-12-20T05:40:33;0.80;99.90
29547;DHT22;40782;47.264;11.330;2023-12-20T05:43:00;0.80;99.90
29547;DHT22;40782;47.264;11.330;2023-12-20T05:45:27;0.80;99.90
29547;DHT22;40782;47.264;11.330;2023-12-20T05:47:56;0.80;99.90
29547;DHT22;40782;47.264;11.330;2023-12-20T05:50:24;0.80;99.90
29547;DHT22;40782;47.264;11.330;2023-12-20T05:52:51;0.80;99.90
29547;DHT22;40782;47.264;11.330;2023-12-20T05:55:17;0.80;99.90
29547;DHT22;40782;47.264;11.330;2023-12-20T05:57:45;0.80;99.90
29547;DHT22;40782;47.264;11.330;2023-12-20T06:00:12;0.80;99.90
29547;DHT22;40782;47.264;11.330;2023-12-20T06:02:39;0.80;99.90
29547;DHT22;40782;47.264;11.330;2023-12-20T06:05:08;0.80;99.90
29547;DHT22;40782;47.264;11.330;2023-12-20T06:07:35;0.80;99.90
29547;DHT22;40782;47.264;11.330;2023-12-20T06:10:02;0.80;99.90
29547;DHT22;40782;47.264;11.330;2023-12-20T06:12:29;0.90;99.90
29547;DHT22;40782;47.264;11.330;2023-12-20T06:14:57;0.90;99.90
29547;DHT22;40782;47.264;11.330;2023-12-20T06:17:24;0.90;99.90
29547;DHT22;40782;47.264;11.330;2023-12-20T06:19:51;0.90;99.90
29547;DHT22;40782;47.264;11.330;2023-12-20T06:22:19;0.90;99.90
29547;DHT22;40782;47.264;11.330;2023-12-20T06:24:46;0.90;99.90
29547;DHT22;40782;47.264;11.330;2023-12-20T06:27:13;0.90;99.90
29547;DHT22;40782;47.264;11.330;2023-12-20T06:29:40;0.90;99.90
29547;DHT22;40782;47.264;11.330;2023-12-20T06:32:08;0.90;99.90
29547;DHT22;40782;47.264;11.330;2023-12-20T06:34:35;1.00;99.90
29547;DHT22;40782;47.264;11.330;2023-12-20T06:37:03;1.00;99.90
29547;DHT22;40782;47.264;11.330;2023-12-20T06:39:31;1.00;99.90
29547;DHT22;40782;47.264;11.330;2023-12-20T06:41:59;1.00;99.90
29547;DHT22;40782;47.264;11.330;2023-12-20T06:44:26;1.00;99.90
29547;DHT22;40782;47.264;11.330;2023-12-20T06:46:53;1.00;99.90
29547;DHT22;40782;47.264;11.330;2023-12-20T06:49:20;1.00;99.90
29547;DHT22;40782;47.264;11.330;2023-12-20T06:51:47;1.00;99.90
29547;DHT22;40782;47.264;11.330;2023-12-20T06:54:13;1.00;99.90
29547;DHT22;40782;47.264;11.330;2023-12-20T06:56:42;1.10;99.90
29547;DHT22;40782;47.264;11.330;2023-12-20T06:59:09;1.10;99.90
29547;DHT22;40782;47.264;11.330;2023-12-20T07:01:35;1.10;99.90
29547;DHT22;40782;47.264;11.330;2023-12-20T07:04:03;1.10;99.90
29547;DHT22;40782;47.264;11.330;2023-12-20T07:06:30;1.10;99.90
29547;DHT22;40782;47.264;11.330;2023-12-20T07:08:57;1.10;99.90
29547;DHT22;40782;47.264;11.330;2023-12-20T07:11:24;1.10;99.90
29547;DHT22;40782;47.264;11.330;2023-12-20T07:13:53;1.10;99.90
29547;DHT22;40782;47.264;11.330;2023-12-20T07:16:19;1.10;99.90
29547;DHT22;40782;47.264;11.330;2023-12-20T07:18:46;1.20;99.90
29547;DHT22;40782;47.264;11.330;2023-12-20T07:21:13;1.10;99.90
29547;DHT22;40782;47.264;11.330;2023-12-20T07:23:41;1.10;99.90
29547;DHT22;40782;47.264;11.330;2023-12-20T07:26:08;1.10;99.90
29547;DHT22;40782;47.264;11.330;2023-12-20T07:28:35;1.10;99.90
29547;DHT22;40782;47.264;11.330;2023-12-20T07:31:03;1.10;99.90
29547;DHT22;40782;47.264;11.330;2023-12-20T07:33:30;1.10;99.90
29547;DHT22;40782;47.264;11.330;2023-12-20T07:35:57;1.10;99.90
29547;DHT22;40782;47.264;11.330;2023-12-20T07:38:24;1.20;99.90
29547;DHT22;40782;47.264;11.330;2023-12-20T07:40:51;1.20;99.90
29547;DHT22;40782;47.264;11.330;2023-12-20T07:43:18;1.20;99.90
29547;DHT22;40782;47.264;11.330;2023-12-20T07:45:44;1.20;99.90
29547;DHT22;40782;47.264;11.330;2023-12-20T07:48:13;1.20;99.90
29547;DHT22;40782;47.264;11.330;2023-12-20T07:50:40;1.30;99.90
29547;DHT22;40782;47.264;11.330;2023-12-20T07:53:07;1.30;99.90
29547;DHT22;40782;47.264;11.330;2023-12-20T07:55:34;1.30;99.90
29547;DHT22;40782;47.264;11.330;2023-12-20T07:58:01;1.20;99.90
29547;DHT22;40782;47.264;11.330;2023-12-20T08:00:30;1.30;99.90
29547;DHT22;40782;47.264;11.330;2023-12-20T08:02:57;1.30;99.90
29547;DHT22;40782;47.264;11.330;2023-12-20T08:05:25;1.20;99.90
29547;DHT22;40782;47.264;11.330;2023-12-20T08:07:52;1.30;99.90
29547;DHT22;40782;47.264;11.330;2023-12-20T08:10:19;1.30;99.90
29547;DHT22;40782;47.264;11.330;2023-12-20T08:12:46;1.30;99.90
29547;DHT22;40782;47.264;11.330;2023-12-20T08:15:13;1.30;99.90
29547;DHT22;40782;47.264;11.330;2023-12-20T08:17:40;1.40;99.90
29547;DHT22;40782;47.264;11.330;2023-12-20T08:20:07;1.50;99.90
29547;DHT22;40782;47.264;11.330;2023-12-20T08:22:36;1.50;99.90
29547;DHT22;40782;47.264;11.330;2023-12-20T08:25:03;1.60;99.90
29547;DHT22;40782;47.264;11.330;2023-12-20T08:27:30;1.70;99.90
29547;DHT22;40782;47.264;11.330;2023-12-20T08:29:57;1.70;99.90
29547;DHT22;40782;47.264;11.330;2023-12-20T08:32:25;1.80;99.90
29547;DHT22;40782;47.264;11.330;2023-12-20T08:34:51;1.80;99.90
29547;DHT22;40782;47.264;11.330;2023-12-20T08:37:18;1.80;99.90
29547;DHT22;40782;47.264;11.330;2023-12-20T08:39:47;1.80;99.90
29547;DHT22;40782;47.264;11.330;2023-12-20T08:42:14;1.80;99.90
29547;DHT22;40782;47.264;11.330;2023-12-20T08:44:40;1.80;99.90
29547;DHT22;40782;47.264;11.330;2023-12-20T08:47:07;1.70;99.90
29547;DHT22;40782;47.264;11.330;2023-12-20T08:49:38;1.80;99.90
29547;DHT22;40782;47.264;11.330;2023-12-20T08:52:05;1.80;99.90
29547;DHT22;40782;47.264;11.330;2023-12-20T08:54:32;1.80;99.90
29547;DHT22;40782;47.264;11.330;2023-12-20T08:57:00;1.80;99.90
29547;DHT22;40782;47.264;11.330;2023-12-20T08:59:27;1.80;99.90
29547;DHT22;40782;47.264;11.330;2023-12-20T09:01:54;1.80;99.90
29547;DHT22;40782;47.264;11.330;2023-12-20T09:04:21;1.80;99.90
29547;DHT22;40782;47.264;11.330;2023-12-20T09:06:48;1.80;99.90
29547;DHT22;40782;47.264;11.330;2023-12-20T09:09:15;1.80;99.90
29547;DHT22;40782;47.264;11.330;2023-12-20T09:11:42;1.90;99.90
29547;DHT22;40782;47.264;11.330;2023-12-20T09:14:13;1.90;99.90
29547;DHT22;40782;47.264;11.330;2023-12-20T09:16:40;1.80;99.90
29547;DHT22;40782;47.264;11.330;2023-12-20T09:19:06;1.80;99.90
29547;DHT22;40782;47.264;11.330;2023-12-20T09:21:33;1.90;99.90
29547;DHT22;40782;47.264;11.330;2023-12-20T09:24:00;1.90;99.90
29547;DHT22;40782;47.264;11.330;2023-12-20T09:26:27;2.00;99.90
29547;DHT22;40782;47.264;11.330;2023-12-20T09:28:54;2.00;99.90
29547;DHT22;40782;47.264;11.330;2023-12-20T09:31:22;2.10;99.90
29547;DHT22;40782;47.264;11.330;2023-12-20T09:33:49;2.10;99.90
29547;DHT22;40782;47.264;11.330;2023-12-20T09:36:16;2.10;99.90
29547;DHT22;40782;47.264;11.330;2023-12-20T09:38:43;2.20;99.90
29547;DHT22;40782;47.264;11.330;2023-12-20T09:41:09;2.30;99.90
29547;DHT22;40782;47.264;11.330;2023-12-20T09:43:37;2.30;99.90
29547;DHT22;40782;47.264;11.330;2023-12-20T09:46:05;2.40;99.90
29547;DHT22;40782;47.264;11.330;2023-12-20T09:48:34;2.40;99.90
29547;DHT22;40782;47.264;11.330;2023-12-20T09:51:01;2.40;99.90
29547;DHT22;40782;47.264;11.330;2023-12-20T09:53:28;2.30;99.90
29547;DHT22;40782;47.264;11.330;2023-12-20T09:55:57;2.30;99.90
29547;DHT22;40782;47.264;11.330;2023-12-20T09:58:25;2.30;99.90
29547;DHT22;40782;47.264;11.330;2023-12-20T10:00:52;2.40;99.90
29547;DHT22;40782;47.264;11.330;2023-12-20T10:03:19;2.50;99.90
29547;DHT22;40782;47.264;11.330;2023-12-20T10:05:51;2.50;99.90
29547;DHT22;40782;47.264;11.330;2023-12-20T10:08:19;2.50;99.90
29547;DHT22;40782;47.264;11.330;2023-12-20T10:10:47;2.50;99.90
29547;DHT22;40782;47.264;11.330;2023-12-20T10:13:14;2.50;99.90
29547;DHT22;40782;47.264;11.330;2023-12-20T10:15:41;2.50;99.90
29547;DHT22;40782;47.264;11.330;2023-12-20T10:18:08;2.50;99.90
29547;DHT22;40782;47.264;11.330;2023-12-20T10:20:36;2.50;99.90
29547;DHT22;40782;47.264;11.330;2023-12-20T10:23:05;2.50;99.90
29547;DHT22;40782;47.264;11.330;2023-12-20T10:25:31;2.40;99.90
29547;DHT22;40782;47.264;11.330;2023-12-20T10:28:11;2.50;99.90
29547;DHT22;40782;47.264;11.330;2023-12-20T10:30:39;2.50;99.90
29547;DHT22;40782;47.264;11.330;2023-12-20T10:33:06;2.50;99.90
29547;DHT22;40782;47.264;11.330;2023-12-20T10:35:32;2.60;99.90
29547;DHT22;40782;47.264;11.330;2023-12-20T10:38:00;2.70;99.90
29547;DHT22;40782;47.264;11.330;2023-12-20T10:40:30;2.80;99.90
29547;DHT22;40782;47.264;11.330;2023-12-20T10:42:57;3.00;99.90
29547;DHT22;40782;47.264;11.330;2023-12-20T10:45:25;3.20;99.90
29547;DHT22;40782;47.264;11.330;2023-12-20T10:47:52;3.30;99.90
29547;DHT22;40782;47.264;11.330;2023-12-20T10:50:19;3.50;99.90
29547;DHT22;40782;47.264;11.330;2023-12-20T10:52:46;3.60;99.90
29547;DHT22;40782;47.264;11.330;2023-12-20T10:55:13;3.70;99.90
29547;DHT22;40782;47.264;11.330;2023-12-20T10:57:42;3.90;99.90
29547;DHT22;40782;47.264;11.330;2023-12-20T11:00:10;4.00;99.90
29547;DHT22;40782;47.264;11.330;2023-12-20T11:02:40;4.10;99.90
29547;DHT22;40782;47.264;11.330;2023-12-20T11:05:10;4.20;99.90
29547;DHT22;40782;47.264;11.330;2023-12-20T11:07:39;4.20;99.90
29547;DHT22;40782;47.264;11.330;2023-12-20T11:10:10;4.30;99.90
29547;DHT22;40782;47.264;11.330;2023-12-20T11:12:43;4.40;99.90
29547;DHT22;40782;47.264;11.330;2023-12-20T11:15:14;4.50;99.90
29547;DHT22;40782;47.264;11.330;2023-12-20T11:17:44;4.80;99.90
29547;DHT22;40782;47.264;11.330;2023-12-20T11:20:11;5.10;99.90
29547;DHT22;40782;47.264;11.330;2023-12-20T11:22:39;5.30;99.90
29547;DHT22;40782;47.264;11.330;2023-12-20T11:25:08;5.50;99.90
29547;DHT22;40782;47.264;11.330;2023-12-20T11:27:35;5.70;99.90
29547;DHT22;40782;47.264;11.330;2023-12-20T11:30:04;5.80;99.90
29547;DHT22;40782;47.264;11.330;2023-12-20T11:32:33;5.90;99.90
29547;DHT22;40782;47.264;11.330;2023-12-20T11:35:01;5.80;99.90
29547;DHT22;40782;47.264;11.330;2023-12-20T11:37:28;5.90;99.90
29547;DHT22;40782;47.264;11.330;2023-12-20T11:40:00;6.10;99.90
29547;DHT22;40782;47.264;11.330;2023-12-20T11:42:27;6.20;99.90
29547;DHT22;40782;47.264;11.330;2023-12-20T11:44:54;6.40;99.90
29547;DHT22;40782;47.264;11.330;2023-12-20T11:47:24;6.70;99.90
29547;DHT22;40782;47.264;11.330;2023-12-20T11:49:50;7.10;99.90
29547;DHT22;40782;47.264;11.330;2023-12-20T11:52:17;7.40;99.90
29547;DHT22;40782;47.264;11.330;2023-12-20T11:54:45;7.70;99.90
29547;DHT22;40782;47.264;11.330;2023-12-20T11:57:13;8.00;84.60
29547;DHT22;40782;47.264;11.330;2023-12-20T11:59:40;8.30;83.70
29547;DHT22;40782;47.264;11.330;2023-12-20T12:02:07;8.60;80.80
29547;DHT22;40782;47.264;11.330;2023-12-20T12:04:35;9.20;80.70
29547;DHT22;40782;47.264;11.330;2023-12-20T12:07:02;9.60;66.20
29547;DHT22;40782;47.264;11.330;2023-12-20T12:09:29;9.90;64.80
29547;DHT22;40782;47.264;11.330;2023-12-20T12:11:56;10.20;61.50
29547;DHT22;40782;47.264;11.330;2023-12-20T12:14:23;10.50;40.70
29547;DHT22;40782;47.264;11.330;2023-12-20T12:16:50;11.00;42.10
29547;DHT22;40782;47.264;11.330;2023-12-20T12:19:21;11.50;22.90
29547;DHT22;40782;47.264;11.330;2023-12-20T12:21:50;11.90;17.40
29547;DHT22;40782;47.264;11.330;2023-12-20T12:24:19;11.90;15.60
29547;DHT22;40782;47.264;11.330;2023-12-20T12:26:49;12.20;12.70
29547;DHT22;40782;47.264;11.330;2023-12-20T12:29:16;12.70;15.70
29547;DHT22;40782;47.264;11.330;2023-12-20T12:31:43;13.00;10.70
29547;DHT22;40782;47.264;11.330;2023-12-20T12:34:10;13.60;7.60
29547;DHT22;40782;47.264;11.330;2023-12-20T12:36:37;13.90;1.90
29547;DHT22;40782;47.264;11.330;2023-12-20T12:39:06;14.10;1.00
29547;DHT22;40782;47.264;11.330;2023-12-20T12:41:33;14.20;1.00
29547;DHT22;40782;47.264;11.330;2023-12-20T12:44:01;14.40;1.00
29547;DHT22;40782;47.264;11.330;2023-12-20T12:46:29;14.50;1.00
29547;DHT22;40782;47.264;11.330;2023-12-20T12:48:55;14.90;1.00
29547;DHT22;40782;47.264;11.330;2023-12-20T12:51:22;15.10;1.00
29547;DHT22;40782;47.264;11.330;2023-12-20T12:53:49;15.20;1.00
29547;DHT22;40782;47.264;11.330;2023-12-20T12:56:18;15.50;1.00
29547;DHT22;40782;47.264;11.330;2023-12-20T12:58:44;15.70;1.00
29547;DHT22;40782;47.264;11.330;2023-12-20T13:01:12;15.80;1.00
29547;DHT22;40782;47.264;11.330;2023-12-20T13:03:39;16.00;1.00
29547;DHT22;40782;47.264;11.330;2023-12-20T13:06:06;16.20;1.00
29547;DHT22;40782;47.264;11.330;2023-12-20T13:08:34;16.00;1.00
29547;DHT22;40782;47.264;11.330;2023-12-20T13:11:01;16.10;1.00
29547;DHT22;40782;47.264;11.330;2023-12-20T13:13:31;16.40;1.00
29547;DHT22;40782;47.264;11.330;2023-12-20T13:15:58;16.20;1.00
29547;DHT22;40782;47.264;11.330;2023-12-20T13:18:26;16.00;1.00
29547;DHT22;40782;47.264;11.330;2023-12-20T13:20:53;15.80;1.00
29547;DHT22;40782;47.264;11.330;2023-12-20T13:23:20;15.60;1.00
29547;DHT22;40782;47.264;11.330;2023-12-20T13:25:47;15.40;1.00
29547;DHT22;40782;47.264;11.330;2023-12-20T13:28:14;15.20;1.00
29547;DHT22;40782;47.264;11.330;2023-12-20T13:30:42;15.30;1.00
29547;DHT22;40782;47.264;11.330;2023-12-20T13:33:09;15.30;1.00
29547;DHT22;40782;47.264;11.330;2023-12-20T13:35:37;15.00;1.00
29547;DHT22;40782;47.264;11.330;2023-12-20T13:38:05;14.30;1.00
29547;DHT22;40782;47.264;11.330;2023-12-20T13:40:33;14.00;1.00
29547;DHT22;40782;47.264;11.330;2023-12-20T13:42:59;13.80;1.00
29547;DHT22;40782;47.264;11.330;2023-12-20T13:45:28;13.30;1.00
29547;DHT22;40782;47.264;11.330;2023-12-20T13:47:56;12.80;1.00
29547;DHT22;40782;47.264;11.330;2023-12-20T13:50:24;12.40;1.00
29547;DHT22;40782;47.264;11.330;2023-12-20T13:52:51;12.10;1.00
29547;DHT22;40782;47.264;11.330;2023-12-20T13:55:18;11.70;1.00
29547;DHT22;40782;47.264;11.330;2023-12-20T13:57:47;11.20;1.00
29547;DHT22;40782;47.264;11.330;2023-12-20T14:00:14;10.80;1.00
29547;DHT22;40782;47.264;11.330;2023-12-20T14:02:41;10.50;1.00
29547;DHT22;40782;47.264;11.330;2023-12-20T14:05:09;10.50;1.00
29547;DHT22;40782;47.264;11.330;2023-12-20T14:07:36;10.20;1.00
29547;DHT22;40782;47.264;11.330;2023-12-20T14:10:04;10.00;1.00
29547;DHT22;40782;47.264;11.330;2023-12-20T14:12:31;9.80;1.00
29547;DHT22;40782;47.264;11.330;2023-12-20T14:15:01;9.60;1.00
29547;DHT22;40782;47.264;11.330;2023-12-20T14:17:28;9.40;1.00
29547;DHT22;40782;47.264;11.330;2023-12-20T14:19:57;9.10;1.00
29547;DHT22;40782;47.264;11.330;2023-12-20T14:22:26;8.80;1.00
29547;DHT22;40782;47.264;11.330;2023-12-20T14:24:54;8.60;1.00
29547;DHT22;40782;47.264;11.330;2023-12-20T14:27:22;8.40;1.00
29547;DHT22;40782;47.264;11.330;2023-12-20T14:29:50;8.20;1.00
29547;DHT22;40782;47.264;11.330;2023-12-20T14:32:16;8.00;1.00
29547;DHT22;40782;47.264;11.330;2023-12-20T14:34:43;7.80;1.00
29547;DHT22;40782;47.264;11.330;2023-12-20T14:37:11;7.70;1.00
29547;DHT22;40782;47.264;11.330;2023-12-20T14:39:39;7.60;1.00
29547;DHT22;40782;47.264;11.330;2023-12-20T14:42:06;7.50;1.00
29547;DHT22;40782;47.264;11.330;2023-12-20T14:44:36;7.40;1.00
29547;DHT22;40782;47.264;11.330;2023-12-20T14:47:03;7.20;1.00
29547;DHT22;40782;47.264;11.330;2023-12-20T14:49:30;7.00;1.00
29547;DHT22;40782;47.264;11.330;2023-12-20T14:51:57;6.90;1.00
29547;DHT22;40782;47.264;11.330;2023-12-20T14:54:25;6.70;1.00
29547;DHT22;40782;47.264;11.330;2023-12-20T14:56:53;6.40;1.00
29547;DHT22;40782;47.264;11.330;2023-12-20T14:59:21;6.30;1.00
29547;DHT22;40782;47.264;11.330;2023-12-20T15:01:48;6.20;15.40
29547;DHT22;40782;47.264;11.330;2023-12-20T15:04:15;6.10;4.40
29547;DHT22;40782;47.264;11.330;2023-12-20T15:06:42;6.00;7.80
29547;DHT22;40782;47.264;11.330;2023-12-20T15:09:10;5.90;13.90
29547;DHT22;40782;47.264;11.330;2023-12-20T15:11:37;5.80;17.80
29547;DHT22;40782;47.264;11.330;2023-12-20T15:14:05;5.70;21.80
29547;DHT22;40782;47.264;11.330;2023-12-20T15:16:32;5.70;22.10
29547;DHT22;40782;47.264;11.330;2023-12-20T15:18:59;5.60;27.80
29547;DHT22;40782;47.264;11.330;2023-12-20T15:21:26;5.50;28.60
29547;DHT22;40782;47.264;11.330;2023-12-20T15:23:57;5.40;24.80
29547;DHT22;40782;47.264;11.330;2023-12-20T15:26:31;5.20;25.20
29547;DHT22;40782;47.264;11.330;2023-12-20T15:28:58;5.20;26.50
29547;DHT22;40782;47.264;11.330;2023-12-20T15:31:27;5.10;26.60